Time;durP1;ratioP1;P1;durP2;ratioP2;P2;SDS_P1;SDS_P2;PMS_P1;PMS_P2;Temp;Humidity;BMP_temperature;BMP_pressure;BME280_temperature;BME280_humidity;BME280_pressure;Samples;Min_cycle;Max_cycle;Signal;HPM_P1;HPM_P2
2023/10/08 00:01:13;;;;;;;4.15;2.50;;;;;;;;;;6237899;23;20075;-83
2023/10/08 00:03:48;;;;;;;3.88;2.88;;;;;;;;;;6201130;23;20020;-83
2023/10/08 00:06:20;;;;;;;4.85;2.90;;;;;;;;;;6201125;23;20030;-83
2023/10/08 00:08:47;;;;;;;4.28;2.95;;;;;;;;;;6201020;23;20016;-82
2023/10/08 00:11:15;;;;;;;5.57;2.72;;;;;;;;;;6200716;23;20023;-83
2023/10/08 00:13:44;;;;;;;5.05;2.33;;;;;;;;;;6253073;23;20383;-83
2023/10/08 00:16:16;;;;;;;3.95;2.67;;;;;;;;;;6225891;23;20022;-83
2023/10/08 00:18:50;;;;;;;4.68;3.15;;;;;;;;;;6202613;23;20024;-83
2023/10/08 00:21:20;;;;;;;5.05;2.92;;;;;;;;;;6227715;23;20023;-83
2023/10/08 00:23:52;;;;;;;7.90;3.30;;;;;;;;;;6236893;23;20012;-83
2023/10/08 00:26:27;;;;;;;6.07;2.90;;;;;;;;;;6259824;22;20129;-83
2023/10/08 00:28:59;;;;;;;3.83;2.60;;;;;;;;;;6202637;23;20460;-83
2023/10/08 00:31:32;;;;;;;5.57;2.35;;;;;;;;;;6201435;23;20018;-83
2023/10/08 00:33:59;;;;;;;4.38;2.42;;;;;;;;;;6200994;23;20026;-83
2023/10/08 00:36:28;;;;;;;5.68;2.85;;;;;;;;;;6227155;23;20027;-83
2023/10/08 00:38:59;;;;;;;4.07;3.03;;;;;;;;;;6201090;23;20374;-83
2023/10/08 00:41:30;;;;;;;4.47;2.90;;;;;;;;;;6226108;23;20032;-82
2023/10/08 00:44:00;;;;;;;3.90;2.40;;;;;;;;;;6236055;23;20012;-82
2023/10/08 00:46:35;;;;;;;5.18;2.42;;;;;;;;;;6202841;23;20035;-82
2023/10/08 00:49:20;;;;;;;5.00;2.67;;;;;;;;;;6177193;23;20016;-82
2023/10/08 00:52:03;;;;;;;3.97;2.80;;;;;;;;;;6237037;23;20012;-83
2023/10/08 00:54:32;;;;;;;3.08;2.67;;;;;;;;;;6201015;23;20020;-83
2023/10/08 00:57:04;;;;;;;3.58;2.17;;;;;;;;;;6226185;23;20030;-83
2023/10/08 00:59:43;;;;;;;4.70;3.25;;;;;;;;;;6202151;23;20363;-83
2023/10/08 01:02:19;;;;;;;3.97;2.72;;;;;;;;;;6226312;23;20012;-82
2023/10/08 01:04:47;;;;;;;3.78;3.28;;;;;;;;;;6201322;23;20028;-82
2023/10/08 01:07:16;;;;;;;4.88;2.97;;;;;;;;;;6201198;23;20016;-82
2023/10/08 01:09:50;;;;;;;5.35;3.45;;;;;;;;;;6201984;23;20344;-82
2023/10/08 01:12:23;;;;;;;4.00;2.88;;;;;;;;;;6200976;23;20016;-82
2023/10/08 01:14:55;;;;;;;4.15;2.67;;;;;;;;;;6201104;23;20023;-82
2023/10/08 01:17:25;;;;;;;9.15;3.35;;;;;;;;;;6201118;23;20030;-82
2023/10/08 01:20:00;;;;;;;3.65;3.10;;;;;;;;;;6235342;23;20026;-82
2023/10/08 01:22:30;;;;;;;5.13;3.20;;;;;;;;;;6263826;23;20024;-82
2023/10/08 01:25:01;;;;;;;5.53;3.00;;;;;;;;;;6238763;23;20020;-83
2023/10/08 01:27:34;;;;;;;4.97;3.15;;;;;;;;;;6228582;23;20337;-83
2023/10/08 01:30:17;;;;;;;6.18;2.92;;;;;;;;;;6203069;23;20016;-83
2023/10/08 01:32:46;;;;;;;;;;;;;;;;;;6203372;23;20026;-82
2023/10/08 01:35:22;;;;;;;6.22;3.97;;;;;;;;;;6202960;23;19922;-82
2023/10/08 03:17:07;;;;;;;4.47;3.13;;;;;;;;;;6253256;22;20043;-80
2023/10/08 03:19:45;;;;;;;6.70;4.30;;;;;;;;;;6202205;23;20020;-81
2023/10/08 03:22:37;;;;;;;5.90;4.22;;;;;;;;;;6225999;23;20016;-81
2023/10/08 03:25:16;;;;;;;5.25;3.75;;;;;;;;;;6199998;23;20021;-81
2023/10/08 03:27:48;;;;;;;6.00;4.50;;;;;;;;;;6226957;23;20352;-81
2023/10/08 03:30:26;;;;;;;6.72;3.53;;;;;;;;;;6236323;23;20012;-81
2023/10/08 03:33:01;;;;;;;3.85;3.08;;;;;;;;;;6263340;23;20020;-81
2023/10/08 03:35:37;;;;;;;5.70;3.20;;;;;;;;;;6201377;22;20684;-81
2023/10/08 03:40:54;;;;;;;5.10;3.50;;;;;;;;;;6201076;23;20024;-82
2023/10/08 04:05:19;;;;;;;6.03;3.00;;;;;;;;;;6277251;22;20390;-81
2023/10/08 04:08:34;;;;;;;;;;;;;;;;;;;;;
2023/10/08 04:12:11;;;;;;;6.35;3.22;;;;;;;;;;6129841;23;20032;-80
2023/10/08 04:15:27;;;;;;;4.75;3.67;;;;;;;;;;6098839;23;20462;-81
2023/10/08 04:18:18;;;;;;;4.45;3.65;;;;;;;;;;6165974;23;20023;-81
2023/10/08 04:28:09;;;;;;;3.38;3.08;;;;;;;;;;6171773;23;20017;-81
2023/10/08 04:30:41;;;;;;;5.67;4.27;;;;;;;;;;6132448;23;20025;-81
2023/10/08 04:33:12;;;;;;;8.35;3.58;;;;;;;;;;6165809;23;20025;-81
2023/10/08 04:35:47;;;;;;;6.43;4.68;;;;;;;;;;6165852;23;20027;-81
2023/10/08 04:38:21;;;;;;;3.70;3.38;;;;;;;;;;6175441;23;20013;-81
2023/10/08 04:41:18;;;;;;;5.53;4.35;;;;;;;;;;6173692;23;20032;-81
2023/10/08 04:48:00;;;;;;;;;;;;;;;;;;;;;
2023/10/08 04:50:31;;;;;;;4.13;3.72;;;;;;;;;;6091908;23;20031;-81
2023/10/08 04:53:07;;;;;;;11.73;4.30;;;;;;;;;;6164615;23;20017;-81
2023/10/08 04:55:48;;;;;;;5.93;3.55;;;;;;;;;;6200050;23;20023;-81
2023/10/08 04:58:33;;;;;;;3.78;3.15;;;;;;;;;;6175047;23;20035;-81
2023/10/08 05:01:29;;;;;;;6.35;3.63;;;;;;;;;;6165393;23;20017;-81
2023/10/08 05:04:23;;;;;;;5.72;3.78;;;;;;;;;;6164957;23;20410;-81
2023/10/08 05:07:16;;;;;;;7.38;4.05;;;;;;;;;;6164323;23;20027;-81
2023/10/08 05:09:52;;;;;;;6.75;3.40;;;;;;;;;;6140772;23;20027;-81
2023/10/08 05:12:50;;;;;;;5.93;4.30;;;;;;;;;;6164300;23;20017;-81
2023/10/08 05:15:32;;;;;;;5.50;3.42;;;;;;;;;;6164574;23;20021;-81
2023/10/08 05:18:37;;;;;;;4.38;3.30;;;;;;;;;;6140473;23;20027;-81
2023/10/08 05:21:25;;;;;;;5.30;4.45;;;;;;;;;;6190764;23;20024;-80
2023/10/08 05:24:08;;;;;;;6.32;3.90;;;;;;;;;;6164620;23;20013;-81
2023/10/08 05:26:44;;;;;;;4.47;3.03;;;;;;;;;;6170481;23;20036;-81
2023/10/08 05:38:51;;;;;;;6.40;3.92;;;;;;;;;;6047905;23;20592;-81
2023/10/08 05:44:23;;;;;;;5.18;3.80;;;;;;;;;;6140115;23;20021;-81
2023/10/08 05:47:28;;;;;;;8.45;3.67;;;;;;;;;;6194472;23;20017;-81
2023/10/08 07:37:14;;;;;;;7.25;5.18;;;;;;;;;;6267585;22;20153;-83
2023/10/08 07:39:46;;;;;;;4.55;3.80;;;;;;;;;;6258453;23;20016;-82
2023/10/08 07:42:13;;;;;;;5.20;3.63;;;;;;;;;;6221927;23;20016;-82
2023/10/08 07:44:43;;;;;;;8.00;3.97;;;;;;;;;;6196256;23;20383;-82
2023/10/08 07:47:14;;;;;;;6.32;3.85;;;;;;;;;;6249102;22;20022;-83
2023/10/08 07:49:44;;;;;;;4.00;3.55;;;;;;;;;;6220675;23;20024;-83
2023/10/08 07:52:15;;;;;;;7.85;3.53;;;;;;;;;;6196221;23;20020;-83
2023/10/08 07:54:43;;;;;;;5.65;3.47;;;;;;;;;;6229699;23;20012;-83
2023/10/08 07:57:14;;;;;;;5.40;3.60;;;;;;;;;;6221085;23;20024;-83
2023/10/08 07:59:46;;;;;;;4.47;3.03;;;;;;;;;;6194741;23;20024;-84
2023/10/08 08:02:14;;;;;;;5.10;3.03;;;;;;;;;;6245874;23;20012;-83
2023/10/08 08:04:45;;;;;;;5.22;4.03;;;;;;;;;;6196091;23;20020;-82
2023/10/08 08:07:15;;;;;;;4.63;3.08;;;;;;;;;;6249081;22;20020;-82
2023/10/08 08:09:50;;;;;;;6.35;4.07;;;;;;;;;;6196834;23;20020;-83
2023/10/08 08:12:21;;;;;;;5.15;4.07;;;;;;;;;;6173656;23;20046;-83
2023/10/08 08:14:48;;;;;;;6.90;3.97;;;;;;;;;;6248764;23;20012;-83
2023/10/08 08:17:22;;;;;;;4.35;3.95;;;;;;;;;;6250729;22;20067;-83
2023/10/08 08:19:51;;;;;;;4.70;3.17;;;;;;;;;;6221933;23;20039;-83
2023/10/08 08:22:30;;;;;;;6.10;3.20;;;;;;;;;;6196031;23;20364;-83
2023/10/08 08:25:05;;;;;;;4.93;3.60;;;;;;;;;;6231774;23;20008;-82
2023/10/08 08:27:32;;;;;;;4.20;3.53;;;;;;;;;;6195568;23;20020;-83
2023/10/08 08:30:09;;;;;;;6.10;3.03;;;;;;;;;;6220625;23;20035;-83
2023/10/08 08:32:40;;;;;;;5.22;4.13;;;;;;;;;;6220879;23;20020;-83
2023/10/08 08:35:10;;;;;;;6.60;3.65;;;;;;;;;;6196895;23;20049;-83
2023/10/08 08:51:31;;;;;;;4.65;3.08;;;;;;;;;;6132462;23;20404;-83
2023/10/08 08:55:02;;;;;;;;;;;;;;;;;;;;;
2023/10/08 09:37:54;;;;;;;4.32;3.78;;;;;;;;;;5923541;24;20024;-82
2023/10/08 09:40:25;;;;;;;5.45;3.55;;;;;;;;;;5993005;23;20033;-82
2023/10/08 09:43:19;;;;;;;7.35;4.13;;;;;;;;;;5994289;23;20030;-82
2023/10/08 10:21:47;;;;;;;6.13;3.17;;;;;;;;;;5957658;23;20013;-83
2023/10/08 10:24:24;;;;;;;6.03;4.45;;;;;;;;;;6161397;23;20035;-82
2023/10/08 10:26:53;;;;;;;7.60;3.25;;;;;;;;;;6191986;23;20017;-82
2023/10/08 10:29:26;;;;;;;5.30;3.58;;;;;;;;;;6203146;23;20026;-83
2023/10/08 10:31:56;;;;;;;3.83;2.88;;;;;;;;;;6167404;23;20017;-82
2023/10/08 10:34:27;;;;;;;4.03;2.97;;;;;;;;;;6193835;23;20009;-82
2023/10/08 10:37:02;;;;;;;5.38;3.17;;;;;;;;;;6195938;23;20024;-82
2023/10/08 10:39:33;;;;;;;4.55;2.85;;;;;;;;;;6228814;23;20349;-83
2023/10/08 10:42:06;;;;;;;6.63;3.33;;;;;;;;;;6193186;23;20027;-83
2023/10/08 10:44:36;;;;;;;7.28;3.63;;;;;;;;;;6219762;23;20490;-82
2023/10/08 10:49:54;;;;;;;7.25;3.90;;;;;;;;;;6167491;23;20035;-82
2023/10/08 10:52:31;;;;;;;3.97;3.17;;;;;;;;;;6192644;23;20027;-83
2023/10/08 10:55:17;;;;;;;5.03;3.17;;;;;;;;;;6167059;23;20032;-83
2023/10/08 10:57:54;;;;;;;5.00;3.42;;;;;;;;;;6160257;23;20017;-83
2023/10/08 11:03:23;;;;;;;10.27;3.60;;;;;;;;;;6217319;23;20016;-83
2023/10/08 11:39:46;;;;;;;5.88;3.78;;;;;;;;;;6122195;23;20492;-82
2023/10/08 11:42:43;;;;;;;5.85;3.17;;;;;;;;;;6138613;23;20355;-82
2023/10/08 11:45:23;;;;;;;5.00;3.17;;;;;;;;;;6141570;23;20019;-81
2023/10/08 11:48:03;;;;;;;4.70;2.50;;;;;;;;;;6109850;23;20026;-82
2023/10/08 11:50:34;;;;;;;4.20;3.33;;;;;;;;;;6109816;23;20027;-83
2023/10/08 11:53:03;;;;;;;4.63;3.08;;;;;;;;;;6111123;23;20032;-82
2023/10/08 11:55:35;;;;;;;5.88;3.65;;;;;;;;;;6134748;23;20025;-82
2023/10/08 11:58:10;;;;;;;5.70;3.30;;;;;;;;;;6137026;23;20074;-82
2023/10/08 12:00:43;;;;;;;4.88;3.35;;;;;;;;;;6112580;23;20022;-83
2023/10/08 12:03:17;;;;;;;5.43;3.30;;;;;;;;;;6174093;23;20018;-82
2023/10/08 12:26:07;;;;;;;4.05;3.13;;;;;;;;;;6202184;23;20012;-82
2023/10/08 12:28:38;;;;;;;4.45;3.00;;;;;;;;;;6202329;23;20034;-82
2023/10/08 12:31:05;;;;;;;6.88;3.80;;;;;;;;;;6226596;23;20479;-82
2023/10/08 12:33:33;;;;;;;5.00;3.17;;;;;;;;;;6253096;23;20468;-82
2023/10/08 12:36:10;;;;;;;5.35;3.55;;;;;;;;;;6226736;23;20016;-82
2023/10/08 12:38:42;;;;;;;6.88;3.72;;;;;;;;;;6263815;23;20016;-82
2023/10/08 12:41:14;;;;;;;7.85;3.58;;;;;;;;;;6200254;23;20453;-82
2023/10/08 12:43:44;;;;;;;4.10;3.58;;;;;;;;;;6200588;23;20027;-82
2023/10/08 12:46:18;;;;;;;5.43;2.75;;;;;;;;;;6200204;23;20089;-82
2023/10/08 12:48:47;;;;;;;7.20;2.88;;;;;;;;;;6200765;23;20026;-82
2023/10/08 12:51:15;;;;;;;4.45;2.75;;;;;;;;;;6224328;23;20016;-82
2023/10/08 12:53:50;;;;;;;5.90;2.92;;;;;;;;;;6251424;23;20020;-82
2023/10/08 13:11:38;;;;;;;4.70;3.25;;;;;;;;;;6266299;22;20027;-83
2023/10/08 13:14:08;;;;;;;6.22;3.20;;;;;;;;;;6213330;23;20011;-82
2023/10/08 13:16:37;;;;;;;5.40;3.20;;;;;;;;;;6216734;23;20064;-82
2023/10/08 13:19:08;;;;;;;5.65;2.95;;;;;;;;;;6235651;22;20023;-82
2023/10/08 13:21:36;;;;;;;6.97;3.63;;;;;;;;;;6233320;23;20018;-82
2023/10/08 13:24:08;;;;;;;8.63;3.90;;;;;;;;;;6206304;23;20012;-82
2023/10/08 13:26:38;;;;;;;5.32;2.53;;;;;;;;;;6195785;23;20027;-82
2023/10/08 13:29:09;;;;;;;5.80;2.45;;;;;;;;;;6196528;23;20023;-82
2023/10/08 13:31:36;;;;;;;4.20;2.97;;;;;;;;;;6171458;23;20353;-82
2023/10/08 13:34:08;;;;;;;6.25;3.25;;;;;;;;;;6170987;23;20017;-82
2023/10/08 13:36:39;;;;;;;7.70;3.13;;;;;;;;;;6223616;23;20023;-82
2023/10/08 14:11:47;;;;;;;4.45;2.30;;;;;;;;;;6261884;22;20016;-84
2023/10/08 14:14:17;;;;;;;3.75;3.35;;;;;;;;;;6193699;23;20024;-81
2023/10/08 14:20:59;;;;;;;7.18;2.72;;;;;;;;;;6219015;23;20008;-81
2023/10/08 17:31:14;;;;;;;;;;;;;;;;;;;;;
2023/10/08 19:37:23;;;;;;;8.55;6.40;;;;;;;;;;6277779;22;20023;-84
2023/10/08 19:39:50;;;;;;;8.48;6.07;;;;;;;;;;6197206;23;20020;-83
2023/10/08 19:42:20;;;;;;;8.82;6.43;;;;;;;;;;6196660;23;20020;-83
2023/10/08 19:44:47;;;;;;;8.57;5.85;;;;;;;;;;6221212;23;20456;-83
2023/10/08 19:47:14;;;;;;;15.10;6.43;;;;;;;;;;6198146;23;20023;-84
2023/10/08 19:49:41;;;;;;;8.05;5.82;;;;;;;;;;6196771;23;20030;-83
2023/10/08 19:52:11;;;;;;;7.20;6.40;;;;;;;;;;6225438;23;20027;-83
2023/10/08 19:54:40;;;;;;;9.02;5.13;;;;;;;;;;6254291;23;20012;-82
2023/10/08 19:57:09;;;;;;;10.95;5.80;;;;;;;;;;6201405;23;20023;-83
2023/10/08 19:59:37;;;;;;;6.30;5.70;;;;;;;;;;6202492;23;20020;-83
2023/10/08 20:02:07;;;;;;;6.60;5.43;;;;;;;;;;6253959;23;20022;-83
2023/10/08 20:04:34;;;;;;;6.97;4.97;;;;;;;;;;6202916;23;20017;-83
2023/10/08 20:07:04;;;;;;;12.30;5.38;;;;;;;;;;6202124;23;20012;-82
2023/10/08 20:09:33;;;;;;;11.77;6.18;;;;;;;;;;6226345;23;20028;-82
2023/10/08 20:12:03;;;;;;;10.82;5.78;;;;;;;;;;6201197;23;20427;-82
2023/10/08 20:14:36;;;;;;;11.13;5.90;;;;;;;;;;6263216;23;20031;-83
2023/10/08 20:17:08;;;;;;;8.57;4.80;;;;;;;;;;6226161;23;20008;-83
2023/10/08 20:19:35;;;;;;;11.98;6.38;;;;;;;;;;6201622;23;20448;-83
2023/10/08 20:22:06;;;;;;;7.65;5.47;;;;;;;;;;6253884;23;20023;-83
2023/10/08 20:24:38;;;;;;;10.35;6.30;;;;;;;;;;6223559;23;20031;-82
2023/10/08 20:27:08;;;;;;;6.43;5.25;;;;;;;;;;6226074;23;20023;-82
2023/10/08 20:29:38;;;;;;;8.23;4.82;;;;;;;;;;6202890;23;20026;-83
2023/10/08 20:32:08;;;;;;;7.15;5.53;;;;;;;;;;6256101;23;20012;-82
2023/10/08 20:34:38;;;;;;;5.78;5.05;;;;;;;;;;6226233;23;20016;-83
2023/10/08 20:37:07;;;;;;;7.22;5.18;;;;;;;;;;6226717;23;20023;-83
2023/10/08 20:39:39;;;;;;;8.68;5.00;;;;;;;;;;6263441;23;20012;-83
2023/10/08 20:42:07;;;;;;;7.63;5.38;;;;;;;;;;6203641;23;20050;-82
2023/10/08 20:44:38;;;;;;;6.40;4.60;;;;;;;;;;6201004;23;20032;-82
2023/10/08 20:47:07;;;;;;;6.45;5.25;;;;;;;;;;6231324;23;20026;-83
2023/10/08 20:49:37;;;;;;;7.05;5.15;;;;;;;;;;6223795;23;20020;-83
2023/10/08 20:52:08;;;;;;;10.07;5.07;;;;;;;;;;6231493;23;20026;-82
2023/10/08 20:54:38;;;;;;;9.63;6.60;;;;;;;;;;6257768;23;20016;-83
2023/10/08 20:57:06;;;;;;;11.98;6.82;;;;;;;;;;6251360;22;20020;-82
2023/10/08 20:59:34;;;;;;;7.43;5.43;;;;;;;;;;6251900;23;20016;-83
2023/10/08 21:02:09;;;;;;;11.85;5.82;;;;;;;;;;6249785;23;20023;-82
2023/10/08 21:04:39;;;;;;;5.28;4.55;;;;;;;;;;6225179;23;20020;-83
2023/10/08 21:07:07;;;;;;;7.85;6.05;;;;;;;;;;6251651;22;20019;-83
2023/10/08 21:09:38;;;;;;;10.73;6.68;;;;;;;;;;6224940;23;20020;-83
2023/10/08 21:12:07;;;;;;;5.22;4.72;;;;;;;;;;6225644;23;20471;-83
2023/10/08 21:14:37;;;;;;;8.18;5.40;;;;;;;;;;6224745;23;20024;-83
2023/10/08 21:17:06;;;;;;;7.28;5.50;;;;;;;;;;6200005;23;20017;-82
2023/10/08 21:19:33;;;;;;;6.90;5.53;;;;;;;;;;6201274;23;20019;-82
2023/10/08 21:22:03;;;;;;;10.20;6.22;;;;;;;;;;6225769;23;20026;-82
2023/10/08 21:24:33;;;;;;;6.55;5.43;;;;;;;;;;6201311;23;20031;-82
2023/10/08 21:27:01;;;;;;;7.72;6.38;;;;;;;;;;6200905;23;20428;-82
2023/10/08 21:29:31;;;;;;;6.70;5.18;;;;;;;;;;6225582;23;20016;-82
2023/10/08 21:32:00;;;;;;;8.00;5.07;;;;;;;;;;6201103;23;20020;-82
2023/10/08 21:34:29;;;;;;;8.30;4.95;;;;;;;;;;6252095;23;20031;-82
2023/10/08 21:36:59;;;;;;;4.85;4.10;;;;;;;;;;6200433;23;20016;-82
2023/10/08 21:39:29;;;;;;;6.25;5.30;;;;;;;;;;6201485;23;20012;-82
2023/10/08 21:41:57;;;;;;;6.07;5.05;;;;;;;;;;6203392;23;20407;-83
2023/10/08 21:44:26;;;;;;;6.95;5.30;;;;;;;;;;6228611;23;20030;-82
2023/10/08 21:46:54;;;;;;;11.63;6.20;;;;;;;;;;6201709;23;20017;-82
2023/10/08 21:49:21;;;;;;;9.90;5.90;;;;;;;;;;6254065;23;20401;-82
2023/10/08 21:51:51;;;;;;;5.65;4.28;;;;;;;;;;6202959;23;20030;-82
2023/10/08 21:54:18;;;;;;;8.65;5.80;;;;;;;;;;6226712;23;20016;-82
2023/10/08 21:56:45;;;;;;;11.20;5.80;;;;;;;;;;6202474;23;20016;-82
2023/10/08 21:59:13;;;;;;;11.52;5.55;;;;;;;;;;6227623;23;20016;-82
2023/10/08 22:01:43;;;;;;;5.88;4.63;;;;;;;;;;6227857;23;20834;-82
2023/10/08 22:04:13;;;;;;;10.23;5.57;;;;;;;;;;6227454;23;20022;-82
2023/10/08 22:06:40;;;;;;;7.85;6.07;;;;;;;;;;6202716;23;20020;-82
2023/10/08 22:09:11;;;;;;;11.05;6.55;;;;;;;;;;6226738;23;20030;-82
2023/10/08 22:11:42;;;;;;;6.57;5.18;;;;;;;;;;6226466;23;20024;-82
2023/10/08 22:14:13;;;;;;;6.78;5.55;;;;;;;;;;6202534;23;20022;-82
2023/10/08 22:16:42;;;;;;;6.65;5.97;;;;;;;;;;6201276;23;20022;-82
2023/10/08 22:19:11;;;;;;;5.47;4.63;;;;;;;;;;6227473;23;20016;-82
2023/10/08 22:21:39;;;;;;;5.55;5.03;;;;;;;;;;6202646;23;20016;-82
2023/10/08 22:24:10;;;;;;;8.45;6.18;;;;;;;;;;6202302;23;20026;-82
2023/10/08 22:26:40;;;;;;;6.88;4.78;;;;;;;;;;6260144;22;20027;-82
2023/10/08 22:29:09;;;;;;;7.47;5.22;;;;;;;;;;6255070;23;20016;-82
2023/10/08 22:31:39;;;;;;;8.30;5.38;;;;;;;;;;6202955;23;20032;-83
2023/10/08 22:34:15;;;;;;;11.38;6.63;;;;;;;;;;6227663;23;20022;-83
2023/10/08 22:36:46;;;;;;;9.30;6.50;;;;;;;;;;6179787;23;20333;-83
2023/10/08 22:39:20;;;;;;;5.50;4.90;;;;;;;;;;6227018;23;20016;-83
2023/10/08 22:41:55;;;;;;;;;;;;;;;;;;6201742;23;20490;-82
2023/10/08 22:44:23;;;;;;;7.45;4.25;;;;;;;;;;6203798;23;19919;-82
2023/10/08 22:47:09;;;;;;;6.40;5.60;;;;;;;;;;6206524;23;20016;-82
2023/10/08 22:49:40;;;;;;;5.95;5.15;;;;;;;;;;6236703;23;20013;-82
2023/10/08 22:52:09;;;;;;;8.55;5.07;;;;;;;;;;6226678;23;20016;-82
2023/10/08 22:54:37;;;;;;;5.70;5.10;;;;;;;;;;6201527;23;20038;-82
2023/10/08 22:57:07;;;;;;;5.82;4.20;;;;;;;;;;6202491;23;20020;-82
2023/10/08 22:59:35;;;;;;;6.70;5.15;;;;;;;;;;6236234;23;20016;-82
2023/10/08 23:02:05;;;;;;;5.82;5.10;;;;;;;;;;6200787;23;20030;-82
2023/10/08 23:04:33;;;;;;;5.80;4.50;;;;;;;;;;6263918;23;20020;-82
2023/10/08 23:07:01;;;;;;;5.13;4.63;;;;;;;;;;6201357;23;20026;-82
2023/10/08 23:09:31;;;;;;;7.47;5.25;;;;;;;;;;6202622;23;20022;-82
2023/10/08 23:12:00;;;;;;;10.02;6.28;;;;;;;;;;6202175;23;20022;-82
2023/10/08 23:14:31;;;;;;;8.68;5.85;;;;;;;;;;6203638;23;20016;-82
2023/10/08 23:17:01;;;;;;;5.65;3.97;;;;;;;;;;6226430;23;20460;-82
2023/10/08 23:19:28;;;;;;;8.90;5.57;;;;;;;;;;6201592;23;20020;-82
2023/10/08 23:21:58;;;;;;;6.72;5.05;;;;;;;;;;6227695;23;20027;-82
2023/10/08 23:24:25;;;;;;;7.97;5.03;;;;;;;;;;6226743;23;20026;-82
2023/10/08 23:26:52;;;;;;;5.05;3.90;;;;;;;;;;6201958;23;20028;-82
2023/10/08 23:29:19;;;;;;;5.00;3.63;;;;;;;;;;6228007;23;20368;-83
2023/10/08 23:31:50;;;;;;;10.20;5.20;;;;;;;;;;6228095;23;20351;-83
2023/10/08 23:34:17;;;;;;;8.20;5.10;;;;;;;;;;6202723;23;20020;-82
2023/10/08 23:36:51;;;;;;;7.70;4.43;;;;;;;;;;6228721;23;20028;-82
2023/10/08 23:39:25;;;;;;;8.30;6.03;;;;;;;;;;6203294;23;20027;-82
2023/10/08 23:41:54;;;;;;;10.77;6.25;;;;;;;;;;6201771;23;20020;-82
2023/10/08 23:44:30;;;;;;;8.10;5.30;;;;;;;;;;6200726;23;20023;-82
2023/10/08 23:47:09;;;;;;;9.23;5.78;;;;;;;;;;6201813;23;20020;-82
2023/10/08 23:49:53;;;;;;;9.70;6.53;;;;;;;;;;6237354;23;20022;-82
2023/10/08 23:52:23;;;;;;;13.25;6.20;;;;;;;;;;6201758;23;20016;-82
2023/10/08 23:54:56;;;;;;;10.05;6.20;;;;;;;;;;6201999;23;20016;-82
2023/10/08 23:57:31;;;;;;;6.80;5.57;;;;;;;;;;6201806;23;20030;-82
2023/10/08 23:59:58;;;;;;;7.80;6.57;;;;;;;;;;6202175;23;20020;-82
